createdAt,value
2018-01-27T00:02:13.471Z,92.90
2018-01-27T00:04:39.935Z,92.70
2018-01-27T00:07:10.329Z,92.40
2018-01-27T00:09:36.621Z,92.60
2018-01-27T00:12:02.907Z,92.70
2018-01-27T00:14:29.219Z,92.80
2018-01-27T00:16:55.506Z,92.90
2018-01-27T00:19:21.829Z,93.00
2018-01-27T00:21:48.376Z,93.10
2018-01-27T00:24:14.925Z,93.00
2018-01-27T00:26:41.338Z,92.70
2018-01-27T00:29:08.038Z,92.90
2018-01-27T00:31:34.327Z,93.10
2018-01-27T00:34:00.587Z,93.10
2018-01-27T00:36:27.618Z,93.00
2018-01-27T00:38:54.646Z,92.60
2018-01-27T00:41:21.853Z,92.20
2018-01-27T00:43:48.299Z,92.10
2018-01-27T00:46:15.298Z,93.20
2018-01-27T00:48:41.634Z,92.70
2018-01-27T00:51:07.995Z,92.40
2018-01-27T00:53:34.625Z,92.40
2018-01-27T00:56:00.984Z,92.40
2018-01-27T00:58:27.791Z,92.30
2018-01-27T01:00:54.240Z,93.10
2018-01-27T01:03:21.291Z,93.80
2018-01-27T01:05:48.661Z,93.70
2018-01-27T01:08:14.937Z,93.30
2018-01-27T01:10:41.938Z,93.70
2018-01-27T01:13:08.225Z,93.30
2018-01-27T01:15:34.842Z,93.60
2018-01-27T01:18:01.192Z,93.50
2018-01-27T01:20:27.664Z,93.50
2018-01-27T01:22:54.017Z,93.50
2018-01-27T01:25:20.323Z,93.50
2018-01-27T01:27:46.593Z,93.30
2018-01-27T01:30:13.640Z,93.80
2018-01-27T01:32:40.646Z,93.90
2018-01-27T01:35:06.907Z,93.80
2018-01-27T01:37:33.217Z,93.10
2018-01-27T01:39:59.477Z,92.70
2018-01-27T01:42:31.798Z,92.70
2018-01-27T01:44:58.066Z,92.50
2018-01-27T01:47:24.369Z,92.80
2018-01-27T01:49:50.659Z,92.80
2018-01-27T01:52:16.923Z,93.00
2018-01-27T01:54:43.963Z,93.20
2018-01-27T01:57:10.235Z,92.70
2018-01-27T01:59:36.486Z,92.80
2018-01-27T02:02:03.538Z,93.40
2018-01-27T02:04:30.693Z,94.20
2018-01-27T02:06:58.516Z,93.20
2018-01-27T02:09:27.873Z,93.80
2018-01-27T02:11:56.644Z,93.70
2018-01-27T02:14:25.413Z,93.10
2018-01-27T02:16:51.654Z,93.60
2018-01-27T02:19:18.686Z,93.00
2018-01-27T02:21:45.742Z,93.00
2018-01-27T02:24:12.006Z,93.00
2018-01-27T02:26:38.320Z,92.50
2018-01-27T02:29:04.601Z,92.20
2018-01-27T02:31:30.874Z,92.40
2018-01-27T02:33:57.144Z,92.60
2018-01-27T02:36:23.407Z,92.60
2018-01-27T02:38:50.478Z,92.50
2018-01-27T02:41:16.775Z,92.60
2018-01-27T02:43:43.071Z,92.00
2018-01-27T02:46:10.135Z,92.40
2018-01-27T02:48:36.413Z,92.00
2018-01-27T02:51:02.743Z,92.30
2018-01-27T02:53:29.755Z,93.30
2018-01-27T02:55:56.067Z,93.00
2018-01-27T02:58:22.355Z,92.90
2018-01-27T03:00:48.642Z,92.90
2018-01-27T03:03:14.931Z,93.00
2018-01-27T03:05:41.206Z,93.10
2018-01-27T03:08:07.449Z,92.80
2018-01-27T03:10:33.701Z,92.50
2018-01-27T03:12:59.990Z,92.30
2018-01-27T03:15:26.997Z,92.50
2018-01-27T03:17:53.279Z,92.30
2018-01-27T03:20:19.591Z,92.20
2018-01-27T03:22:45.859Z,92.20
2018-01-27T03:25:12.885Z,92.60
2018-01-27T03:27:39.217Z,92.30
2018-01-27T03:30:05.515Z,93.00
2018-01-27T03:32:31.790Z,92.70
2018-01-27T03:34:58.063Z,92.40
2018-01-27T03:37:25.089Z,92.50
2018-01-27T03:39:52.090Z,92.60
2018-01-27T03:42:18.369Z,92.40
2018-01-27T03:44:44.636Z,92.80
2018-01-27T03:47:10.905Z,92.50
2018-01-27T03:49:37.200Z,92.70
2018-01-27T03:52:03.465Z,92.90
2018-01-27T03:54:30.560Z,93.00
2018-01-27T03:56:56.837Z,92.60
2018-01-27T03:59:23.095Z,92.30
2018-01-27T04:01:49.390Z,93.10
2018-01-27T04:04:15.660Z,93.00
2018-01-27T04:06:41.963Z,92.60
2018-01-27T04:09:08.239Z,92.70
2018-01-27T04:11:34.518Z,92.90
2018-01-27T04:14:00.808Z,93.00
2018-01-27T04:16:27.078Z,92.90
2018-01-27T04:18:53.382Z,92.80
2018-01-27T04:21:20.416Z,92.90
2018-01-27T04:23:47.426Z,92.10
2018-01-27T04:26:13.715Z,92.30
2018-01-27T04:28:39.999Z,92.00
2018-01-27T04:31:06.286Z,92.20
2018-01-27T04:33:33.302Z,92.70
2018-01-27T04:35:59.620Z,92.20
2018-01-27T04:38:25.911Z,92.40
2018-01-27T04:40:52.169Z,92.80
2018-01-27T04:43:19.182Z,92.90
2018-01-27T04:45:45.470Z,92.50
2018-01-27T04:48:11.725Z,92.50
2018-01-27T04:50:38.751Z,93.10
2018-01-27T04:53:05.011Z,92.50
2018-01-27T04:55:31.330Z,92.60
2018-01-27T04:57:57.603Z,92.60
2018-01-27T05:00:23.907Z,92.60
2018-01-27T05:02:50.201Z,92.70
2018-01-27T05:05:16.463Z,92.80
2018-01-27T05:07:43.478Z,92.90
2018-01-27T05:10:09.729Z,92.80
2018-01-27T05:12:35.991Z,92.90
2018-01-27T05:15:02.298Z,92.50
2018-01-27T05:17:28.587Z,92.80
2018-01-27T05:19:54.862Z,92.70
2018-01-27T05:22:21.864Z,93.10
2018-01-27T05:24:48.133Z,92.80
2018-01-27T05:27:14.445Z,92.70
2018-01-27T05:29:40.714Z,92.80
2018-01-27T05:32:07.005Z,92.50
2018-01-27T05:34:33.288Z,92.50
2018-01-27T05:36:59.571Z,92.60
2018-01-27T05:39:25.883Z,92.40
2018-01-27T05:41:52.138Z,92.50
2018-01-27T05:44:18.439Z,92.50
2018-01-27T05:46:44.690Z,92.20
2018-01-27T05:49:10.963Z,92.30
2018-01-27T05:51:37.997Z,93.00
2018-01-27T05:54:04.274Z,92.80
2018-01-27T05:56:30.599Z,92.80
2018-01-27T05:58:56.894Z,92.70
2018-01-27T06:01:23.205Z,93.00
2018-01-27T06:03:49.494Z,93.10
2018-01-27T06:06:15.754Z,93.20
2018-01-27T06:08:42.070Z,93.40
2018-01-27T06:11:08.366Z,93.10
2018-01-27T06:13:34.642Z,92.80
2018-01-27T06:16:00.943Z,92.70
2018-01-27T06:18:27.238Z,92.90
2018-01-27T06:20:53.580Z,93.10
2018-01-27T06:23:20.626Z,92.80
2018-01-27T06:25:46.873Z,92.50
2018-01-27T06:28:13.154Z,92.10
2018-01-27T06:30:39.412Z,92.60
2018-01-27T06:33:05.731Z,91.90
2018-01-27T06:35:31.991Z,91.90
2018-01-27T06:37:59.019Z,92.10
2018-01-27T06:40:26.079Z,92.50
2018-01-27T06:42:52.345Z,92.10
2018-01-27T06:45:18.647Z,92.50
2018-01-27T06:47:44.922Z,92.50
2018-01-27T06:50:11.187Z,92.30
2018-01-27T06:52:37.487Z,92.30
2018-01-27T06:55:03.774Z,92.60
2018-01-27T06:57:30.063Z,92.20
2018-01-27T06:59:57.087Z,92.60
2018-01-27T07:02:24.142Z,92.50
2018-01-27T07:04:50.454Z,92.00
2018-01-27T07:07:16.768Z,92.10
2018-01-27T07:09:43.022Z,92.00
2018-01-27T07:12:09.307Z,91.80
2018-01-27T07:14:35.695Z,92.10
2018-01-27T07:17:02.735Z,92.70
2018-01-27T07:19:29.048Z,92.00
2018-01-27T07:22:00.886Z,92.10
2018-01-27T07:24:27.257Z,92.30
2018-01-27T07:26:53.566Z,92.10
2018-01-27T07:29:19.827Z,92.20
2018-01-27T07:31:46.192Z,92.50
2018-01-27T07:34:12.473Z,92.60
2018-01-27T07:36:39.462Z,92.60
2018-01-27T07:39:05.781Z,92.60
2018-01-27T07:41:32.070Z,92.40
2018-01-27T07:43:58.345Z,92.40
2018-01-27T07:46:25.351Z,92.60
2018-01-27T07:48:51.626Z,92.80
2018-01-27T07:51:17.936Z,92.50
2018-01-27T07:53:44.210Z,92.10
2018-01-27T07:56:10.511Z,92.20
2018-01-27T07:58:36.853Z,92.50
2018-01-27T08:01:03.104Z,92.50
2018-01-27T08:03:29.432Z,92.60
2018-01-27T08:05:55.709Z,92.40
2018-01-27T08:08:22.774Z,92.40
2018-01-27T08:10:49.048Z,92.30
2018-01-27T08:13:16.052Z,92.10
2018-01-27T08:15:42.353Z,91.70
2018-01-27T08:18:08.614Z,92.00
2018-01-27T08:20:35.661Z,92.30
2018-01-27T08:23:01.948Z,91.80
2018-01-27T08:25:28.257Z,92.00
2018-01-27T08:27:54.798Z,91.60
2018-01-27T08:30:21.810Z,91.60
2018-01-27T08:33:09.096Z,91.40
2018-01-27T08:35:36.141Z,91.70
2018-01-27T08:38:02.394Z,91.40
2018-01-27T08:40:29.491Z,90.80
2018-01-27T08:42:56.063Z,91.10
2018-01-27T08:45:22.452Z,91.70
2018-01-27T08:47:49.470Z,91.70
2018-01-27T08:50:17.238Z,91.40
2018-01-27T08:52:43.637Z,91.30
2018-01-27T08:55:10.490Z,91.00
2018-01-27T08:58:05.543Z,91.30
2018-01-27T09:03:42.073Z,90.80
2018-01-27T09:06:08.466Z,90.40
2018-01-27T09:08:35.293Z,90.60
2018-01-27T09:11:01.620Z,90.50
2018-01-27T09:13:27.890Z,90.70
2018-01-27T09:15:54.174Z,90.50
2018-01-27T09:18:20.760Z,90.50
2018-01-27T09:20:47.218Z,90.40
2018-01-27T09:23:13.495Z,90.70
2018-01-27T09:25:39.781Z,90.70
2018-01-27T09:28:06.310Z,90.60
2018-01-27T09:30:33.327Z,90.30
2018-01-27T09:32:59.607Z,89.60
2018-01-27T09:35:25.874Z,89.10
2018-01-27T09:37:52.922Z,90.00
2018-01-27T09:40:19.366Z,89.40
2018-01-27T09:42:46.570Z,89.60
2018-01-27T09:45:13.557Z,88.90
2018-01-27T09:47:39.863Z,89.40
2018-01-27T09:50:06.902Z,90.00
2018-01-27T09:52:33.729Z,89.30
2018-01-27T09:55:00.570Z,87.40
2018-01-27T09:57:27.271Z,87.30
2018-01-27T09:59:53.804Z,87.50
2018-01-27T10:02:20.593Z,87.80
2018-01-27T10:04:46.893Z,88.60
2018-01-27T10:07:14.085Z,88.90
2018-01-27T10:09:42.299Z,89.20
2018-01-27T10:12:10.442Z,87.30
2018-01-27T10:14:36.837Z,87.10
2018-01-27T10:19:36.982Z,87.40
2018-01-27T10:22:04.319Z,87.50
2018-01-27T10:24:30.795Z,88.20
2018-01-27T10:26:57.099Z,88.30
2018-01-27T10:29:23.394Z,88.00
2018-01-27T10:31:49.741Z,86.30
2018-01-27T10:34:16.196Z,86.10
2018-01-27T10:36:42.719Z,87.70
2018-01-27T10:39:09.026Z,89.10
2018-01-27T10:41:46.387Z,88.90
2018-01-27T10:44:12.736Z,87.80
2018-01-27T10:46:38.993Z,88.00
2018-01-27T10:49:05.525Z,86.90
2018-01-27T10:51:32.443Z,87.50
2018-01-27T10:54:00.212Z,88.00
2018-01-27T10:56:26.518Z,87.20
2018-01-27T10:58:52.775Z,87.70
2018-01-27T11:01:19.105Z,87.50
2018-01-27T11:03:45.410Z,87.80
2018-01-27T11:06:11.732Z,88.20
2018-01-27T11:08:38.614Z,88.10
2018-01-27T11:11:04.887Z,87.50
2018-01-27T11:13:31.162Z,88.20
2018-01-27T11:15:57.765Z,88.20
2018-01-27T11:18:24.190Z,88.10
2018-01-27T11:20:50.556Z,88.00
2018-01-27T11:25:49.402Z,88.10
2018-01-27T11:28:16.439Z,88.90
2018-01-27T11:30:43.442Z,89.00
2018-01-27T11:33:09.794Z,88.00
2018-01-27T11:35:36.096Z,87.90
2018-01-27T11:38:03.517Z,88.60
2018-01-27T11:40:29.801Z,88.10
2018-01-27T11:42:56.161Z,88.80
2018-01-27T11:45:22.450Z,88.50
2018-01-27T11:47:48.733Z,87.30
2018-01-27T11:50:15.050Z,88.10
2018-01-27T11:52:42.759Z,88.40
2018-01-27T11:55:09.297Z,88.60
2018-01-27T11:57:35.588Z,88.60
2018-01-27T12:00:01.876Z,87.70
2018-01-27T12:02:28.190Z,87.80
2018-01-27T12:05:07.910Z,87.50
2018-01-27T12:07:34.222Z,88.30
2018-01-27T12:10:00.626Z,88.50
2018-01-27T12:12:27.650Z,88.40
2018-01-27T12:14:53.935Z,88.30
2018-01-27T12:17:20.280Z,87.10
2018-01-27T12:19:46.634Z,86.60
2018-01-27T12:22:13.259Z,87.20
2018-01-27T12:24:39.566Z,87.40
2018-01-27T12:27:05.822Z,86.40
2018-01-27T12:29:32.126Z,86.30
2018-01-27T12:31:58.545Z,87.50
2018-01-27T12:34:24.831Z,87.80
2018-01-27T12:36:51.115Z,87.50
2018-01-27T12:39:17.998Z,88.00
2018-01-27T12:41:44.351Z,88.80
2018-01-27T12:47:13.670Z,89.80
2018-01-27T12:49:41.600Z,89.60
2018-01-27T12:52:09.427Z,89.20
2018-01-27T12:54:36.343Z,88.30
2018-01-27T12:57:03.039Z,89.20
2018-01-27T12:59:30.714Z,90.30
2018-01-27T13:01:57.066Z,90.10
2018-01-27T13:04:23.451Z,90.10
2018-01-27T13:06:49.838Z,90.40
2018-01-27T13:09:16.526Z,90.40
2018-01-27T13:11:43.624Z,90.10
2018-01-27T13:14:10.554Z,90.30
2018-01-27T13:16:37.503Z,90.00
2018-01-27T13:19:03.927Z,89.20
2018-01-27T13:21:30.255Z,89.20
2018-01-27T13:23:56.594Z,89.20
2018-01-27T13:26:22.916Z,89.00
2018-01-27T13:28:49.965Z,90.30
2018-01-27T13:31:16.347Z,89.80
2018-01-27T13:33:42.680Z,90.40
2018-01-27T13:36:10.815Z,90.40
2018-01-27T13:38:38.002Z,90.30
2018-01-27T13:41:04.481Z,90.00
2018-01-27T13:43:30.949Z,89.80
2018-01-27T13:45:57.749Z,90.40
2018-01-27T13:48:24.970Z,90.40
2018-01-27T13:50:51.284Z,89.70
2018-01-27T13:53:17.623Z,90.00
2018-01-27T13:55:44.603Z,89.90
2018-01-27T13:58:11.869Z,90.20
2018-01-27T14:00:38.191Z,89.90
2018-01-27T14:03:04.512Z,89.90
2018-01-27T14:05:31.632Z,90.10
2018-01-27T14:07:58.020Z,88.80
2018-01-27T14:10:24.738Z,89.70
2018-01-27T14:12:51.100Z,90.30
2018-01-27T14:15:17.419Z,90.20
2018-01-27T14:17:44.459Z,90.30
2018-01-27T14:20:11.518Z,90.70
2018-01-27T14:22:37.791Z,90.30
2018-01-27T14:25:04.166Z,90.40
2018-01-27T14:27:30.484Z,90.60
2018-01-27T14:29:57.019Z,90.90
2018-01-27T14:32:24.469Z,91.40
2018-01-27T14:34:50.792Z,91.30
2018-01-27T14:37:17.099Z,91.30
2018-01-27T14:39:43.421Z,91.20
2018-01-27T14:42:09.984Z,91.50
2018-01-27T14:44:36.345Z,91.50
2018-01-27T14:47:02.622Z,91.70
2018-01-27T14:49:28.999Z,91.80
2018-01-27T14:51:55.292Z,91.70
2018-01-27T14:54:21.919Z,91.40
2018-01-27T14:56:49.450Z,91.30
2018-01-27T14:59:16.623Z,91.80
2018-01-27T15:01:42.930Z,91.60
2018-01-27T15:04:09.339Z,91.60
2018-01-27T15:06:35.834Z,91.80
2018-01-27T15:09:02.640Z,91.80
2018-01-27T15:11:29.046Z,91.80
2018-01-27T15:13:56.141Z,92.00
2018-01-27T15:16:22.457Z,91.70
2018-01-27T15:18:49.870Z,91.80
2018-01-27T15:21:16.230Z,91.50
2018-01-27T15:23:42.512Z,91.40
2018-01-27T15:26:08.810Z,91.90
2018-01-27T15:28:35.165Z,92.00
2018-01-27T15:31:01.454Z,92.20
2018-01-27T15:33:27.760Z,92.00
2018-01-27T15:35:54.039Z,91.80
2018-01-27T15:38:20.367Z,91.80
2018-01-27T15:40:47.381Z,92.10
2018-01-27T15:43:13.714Z,92.10
2018-01-27T15:45:40.795Z,91.90
2018-01-27T15:48:07.121Z,92.10
2018-01-27T15:50:33.494Z,92.10
2018-01-27T15:52:59.767Z,91.90
2018-01-27T15:55:26.162Z,92.10
2018-01-27T15:57:52.476Z,92.20
2018-01-27T16:00:18.822Z,92.40
2018-01-27T16:02:45.132Z,92.30
2018-01-27T16:05:11.459Z,92.50
2018-01-27T16:07:38.538Z,93.40
2018-01-27T16:10:04.831Z,92.60
2018-01-27T16:12:31.912Z,93.10
2018-01-27T16:14:58.244Z,92.60
2018-01-27T16:17:24.590Z,92.70
2018-01-27T16:19:50.934Z,92.90
2018-01-27T16:22:17.998Z,93.40
2018-01-27T16:24:44.277Z,93.30
2018-01-27T16:27:10.690Z,93.40
2018-01-27T16:29:37.103Z,93.20
2018-01-27T16:32:03.387Z,93.60
2018-01-27T16:34:29.680Z,93.40
2018-01-27T16:36:56.017Z,93.70
2018-01-27T16:39:22.382Z,93.80
2018-01-27T16:41:48.697Z,93.80
2018-01-27T16:44:14.987Z,94.00
2018-01-27T16:46:42.051Z,94.40
2018-01-27T16:49:08.366Z,94.20
2018-01-27T16:51:34.657Z,94.10
2018-01-27T16:54:00.969Z,94.30
2018-01-27T16:56:28.261Z,94.80
2018-01-27T16:58:54.537Z,94.70
2018-01-27T17:01:20.847Z,94.40
2018-01-27T17:03:47.128Z,94.40
2018-01-27T17:06:13.403Z,94.50
2018-01-27T17:08:39.838Z,94.70
2018-01-27T17:11:06.199Z,94.70
2018-01-27T17:13:33.289Z,94.60
2018-01-27T17:15:59.620Z,94.30
2018-01-27T17:18:25.969Z,94.60
2018-01-27T17:20:52.389Z,94.60
2018-01-27T17:23:19.469Z,94.70
2018-01-27T17:25:45.821Z,94.80
2018-01-27T17:28:12.204Z,94.90
2018-01-27T17:30:38.539Z,94.70
2018-01-27T17:33:05.014Z,94.60
2018-01-27T17:35:31.374Z,94.90
2018-01-27T17:37:57.947Z,94.60
2018-01-27T17:40:25.058Z,94.90
2018-01-27T17:42:52.479Z,95.20
2018-01-27T17:45:19.427Z,95.20
2018-01-27T17:47:47.061Z,95.20
2018-01-27T17:50:13.621Z,94.90
2018-01-27T17:52:40.403Z,95.10
2018-01-27T17:55:07.389Z,94.80
2018-01-27T17:57:33.951Z,95.60
2018-01-27T18:00:00.365Z,95.60
2018-01-27T18:02:27.495Z,95.80
2018-01-27T18:04:54.304Z,95.70
2018-01-27T18:07:23.610Z,95.80
2018-01-27T18:09:50.192Z,95.80
2018-01-27T18:12:17.059Z,96.00
2018-01-27T18:14:44.837Z,95.80
2018-01-27T18:17:12.316Z,95.90
2018-01-27T18:19:40.537Z,95.90
2018-01-27T18:22:07.714Z,95.90
2018-01-27T18:24:35.231Z,95.50
2018-01-27T18:27:02.325Z,95.50
2018-01-27T18:29:28.731Z,95.50
2018-01-27T18:31:55.889Z,95.70
2018-01-27T18:34:22.799Z,95.40
2018-01-27T18:36:49.571Z,95.50
2018-01-27T18:39:16.687Z,95.60
2018-01-27T18:41:43.072Z,95.50
2018-01-27T18:44:09.989Z,95.30
2018-01-27T18:46:37.534Z,95.80
2018-01-27T18:49:04.335Z,95.40
2018-01-27T18:51:30.702Z,95.90
2018-01-27T18:53:57.734Z,95.50
2018-01-27T18:56:24.921Z,95.80
2018-01-27T18:58:51.916Z,95.90
2018-01-27T19:01:18.853Z,95.70
2018-01-27T19:03:46.124Z,95.60
2018-01-27T19:06:14.458Z,96.10
2018-01-27T19:08:41.697Z,95.80
2018-01-27T19:11:09.531Z,96.20
2018-01-27T19:13:36.907Z,95.60
2018-01-27T19:16:04.591Z,96.30
2018-01-27T19:18:33.616Z,96.20
2018-01-27T19:21:00.655Z,96.10
2018-01-27T19:23:27.718Z,96.30
2018-01-27T19:25:55.332Z,95.90
2018-01-27T19:28:23.396Z,96.30
2018-01-27T19:30:49.836Z,96.00
2018-01-27T19:33:18.126Z,96.50
2018-01-27T19:35:45.409Z,95.90
2018-01-27T19:38:13.154Z,96.20
2018-01-27T19:40:40.598Z,96.70
2018-01-27T19:43:08.513Z,96.60
2018-01-27T19:45:36.192Z,96.10
2018-01-27T19:48:03.320Z,96.00
2018-01-27T19:50:30.172Z,96.40
2018-01-27T19:52:58.432Z,96.30
2018-01-27T19:55:28.011Z,95.90
2018-01-27T19:57:56.011Z,96.20
2018-01-27T20:00:22.560Z,96.20
2018-01-27T20:02:48.827Z,96.00
2018-01-27T20:05:16.811Z,96.30
2018-01-27T20:07:44.227Z,96.00
2018-01-27T20:10:10.982Z,95.90
2018-01-27T20:12:37.290Z,96.40
2018-01-27T20:15:04.679Z,96.20
2018-01-27T20:17:31.298Z,96.40
2018-01-27T20:19:58.514Z,96.20
2018-01-27T20:22:26.266Z,96.20
2018-01-27T20:24:53.650Z,96.60
2018-01-27T20:27:22.448Z,96.50
2018-01-27T20:29:49.102Z,96.40
2018-01-27T20:32:15.788Z,96.40
2018-01-27T20:34:43.213Z,96.30
2018-01-27T20:37:11.714Z,96.60
2018-01-27T20:39:38.738Z,96.20
2018-01-27T20:42:06.401Z,96.30
2018-01-27T20:44:32.849Z,96.50
2018-01-27T20:46:59.677Z,96.30
2018-01-27T20:49:26.609Z,96.60
2018-01-27T20:51:54.825Z,96.10
2018-01-27T20:54:21.189Z,96.20
2018-01-27T20:56:48.186Z,96.50
2018-01-27T20:59:14.654Z,96.30
2018-01-27T21:01:41.866Z,96.20
2018-01-27T21:04:08.609Z,96.40
2018-01-27T21:06:34.947Z,96.10
2018-01-27T21:09:02.006Z,96.50
2018-01-27T21:11:28.422Z,95.90
2018-01-27T21:13:54.930Z,96.00
2018-01-27T21:16:21.572Z,96.00
2018-01-27T21:18:47.893Z,96.00
2018-01-27T21:21:14.398Z,96.00
2018-01-27T21:23:41.210Z,95.80
2018-01-27T21:26:07.774Z,95.80
2018-01-27T21:28:34.300Z,95.90
2018-01-27T21:31:01.016Z,96.00
2018-01-27T21:33:27.352Z,95.90
2018-01-27T21:35:53.713Z,95.80
2018-01-27T21:38:20.755Z,96.10
2018-01-27T21:40:47.948Z,95.90
2018-01-27T21:43:14.243Z,95.40
2018-01-27T21:45:40.578Z,95.70
2018-01-27T21:48:06.869Z,95.70
2018-01-27T21:50:34.260Z,95.80
2018-01-27T21:53:00.724Z,95.60
2018-01-27T21:55:28.154Z,95.60
2018-01-27T21:57:54.435Z,95.60
2018-01-27T22:00:22.388Z,95.90
2018-01-27T22:02:49.686Z,95.90
2018-01-27T22:05:15.978Z,95.10
2018-01-27T22:07:42.308Z,95.50
2018-01-27T22:10:09.190Z,95.80
2018-01-27T22:12:36.185Z,95.40
2018-01-27T22:15:02.767Z,95.70
2018-01-27T22:17:29.145Z,95.40
2018-01-27T22:19:55.704Z,95.40
2018-01-27T22:22:22.800Z,95.40
2018-01-27T22:24:49.414Z,95.30
2018-01-27T22:27:15.720Z,95.10
2018-01-27T22:29:41.977Z,95.10
2018-01-27T22:32:08.302Z,95.10
2018-01-27T22:34:34.579Z,95.10
2018-01-27T22:37:00.874Z,95.40
2018-01-27T22:39:27.179Z,95.10
2018-01-27T22:41:53.453Z,95.50
2018-01-27T22:44:20.572Z,95.70
2018-01-27T22:46:46.858Z,95.40
2018-01-27T22:49:13.723Z,95.20
2018-01-27T22:51:40.375Z,95.30
2018-01-27T22:54:07.617Z,95.10
2018-01-27T22:56:34.231Z,95.90
2018-01-27T22:59:00.587Z,95.50
2018-01-27T23:01:28.562Z,95.30
2018-01-27T23:03:59.568Z,95.20
2018-01-27T23:06:27.572Z,95.30
2018-01-27T23:08:54.022Z,95.10
2018-01-27T23:11:20.469Z,95.00
2018-01-27T23:14:05.710Z,94.90
2018-01-27T23:16:33.787Z,95.00
2018-01-27T23:19:00.267Z,94.70
2018-01-27T23:21:26.586Z,95.10
2018-01-27T23:23:53.137Z,95.30
2018-01-27T23:26:19.447Z,95.40
2018-01-27T23:28:45.711Z,95.60
2018-01-27T23:31:12.747Z,95.60
2018-01-27T23:33:39.108Z,95.60
2018-01-27T23:36:05.486Z,95.20
2018-01-27T23:38:32.289Z,95.40
2018-01-27T23:40:59.319Z,95.90
2018-01-27T23:43:25.638Z,95.10
2018-01-27T23:45:52.731Z,95.60
2018-01-27T23:48:19.050Z,95.30
2018-01-27T23:50:45.358Z,95.50
2018-01-27T23:53:11.678Z,95.50
2018-01-27T23:55:38.002Z,95.80
2018-01-27T23:58:04.347Z,95.20
